sensor_id;sensor_type;location;lat;lon;timestamp;temperature;humidity
26703;DHT22;14316;51.074;3.704;2023-03-12T00:00:35;7.40;99.90
26703;DHT22;14316;51.074;3.704;2023-03-12T00:03:01;7.20;99.90
26703;DHT22;14316;51.074;3.704;2023-03-12T00:05:27;7.40;99.90
26703;DHT22;14316;51.074;3.704;2023-03-12T00:07:53;7.40;99.90
26703;DHT22;14316;51.074;3.704;2023-03-12T00:10:19;7.30;99.90
26703;DHT22;14316;51.074;3.704;2023-03-12T00:12:45;7.30;99.90
26703;DHT22;14316;51.074;3.704;2023-03-12T00:15:11;7.20;99.90
26703;DHT22;14316;51.074;3.704;2023-03-12T00:17:37;7.20;99.90
26703;DHT22;14316;51.074;3.704;2023-03-12T00:20:04;7.20;99.90
26703;DHT22;14316;51.074;3.704;2023-03-12T00:22:32;7.20;99.90
26703;DHT22;14316;51.074;3.704;2023-03-12T00:24:58;7.20;99.90
26703;DHT22;14316;51.074;3.704;2023-03-12T00:27:25;7.10;99.90
26703;DHT22;14316;51.074;3.704;2023-03-12T00:29:50;7.10;99.90
26703;DHT22;14316;51.074;3.704;2023-03-12T00:32:16;7.00;99.90
26703;DHT22;14316;51.074;3.704;2023-03-12T00:34:42;7.00;99.90
26703;DHT22;14316;51.074;3.704;2023-03-12T00:37:07;7.10;99.90
26703;DHT22;14316;51.074;3.704;2023-03-12T00:39:34;7.10;99.90
26703;DHT22;14316;51.074;3.704;2023-03-12T00:42:00;7.10;99.90
26703;DHT22;14316;51.074;3.704;2023-03-12T00:44:26;7.20;99.90
26703;DHT22;14316;51.074;3.704;2023-03-12T00:46:52;7.20;99.90
26703;DHT22;14316;51.074;3.704;2023-03-12T00:49:18;6.90;99.90
26703;DHT22;14316;51.074;3.704;2023-03-12T00:51:44;6.70;99.90
26703;DHT22;14316;51.074;3.704;2023-03-12T00:54:10;6.80;99.90
26703;DHT22;14316;51.074;3.704;2023-03-12T00:56:36;6.90;99.90
26703;DHT22;14316;51.074;3.704;2023-03-12T00:59:02;6.80;99.90
26703;DHT22;14316;51.074;3.704;2023-03-12T01:01:28;6.90;99.90
26703;DHT22;14316;51.074;3.704;2023-03-12T01:03:54;7.00;99.90
26703;DHT22;14316;51.074;3.704;2023-03-12T01:06:21;7.00;99.90
26703;DHT22;14316;51.074;3.704;2023-03-12T01:08:47;6.80;99.90
26703;DHT22;14316;51.074;3.704;2023-03-12T01:11:15;7.00;99.90
26703;DHT22;14316;51.074;3.704;2023-03-12T01:13:41;7.00;99.90
26703;DHT22;14316;51.074;3.704;2023-03-12T01:16:07;6.90;99.90
26703;DHT22;14316;51.074;3.704;2023-03-12T01:18:33;6.90;99.90
26703;DHT22;14316;51.074;3.704;2023-03-12T01:20:59;6.70;99.90
26703;DHT22;14316;51.074;3.704;2023-03-12T01:23:25;6.90;99.90
26703;DHT22;14316;51.074;3.704;2023-03-12T01:25:51;6.70;99.90
26703;DHT22;14316;51.074;3.704;2023-03-12T01:28:21;6.70;99.90
26703;DHT22;14316;51.074;3.704;2023-03-12T01:30:47;6.70;99.90
26703;DHT22;14316;51.074;3.704;2023-03-12T01:33:13;6.70;99.90
26703;DHT22;14316;51.074;3.704;2023-03-12T01:35:39;6.70;99.90
26703;DHT22;14316;51.074;3.704;2023-03-12T01:38:12;6.80;99.90
26703;DHT22;14316;51.074;3.704;2023-03-12T01:40:39;6.80;99.90
26703;DHT22;14316;51.074;3.704;2023-03-12T01:43:29;6.70;99.90
26703;DHT22;14316;51.074;3.704;2023-03-12T01:46:21;6.70;99.90
26703;DHT22;14316;51.074;3.704;2023-03-12T01:51:26;6.60;99.90
26703;DHT22;14316;51.074;3.704;2023-03-12T01:53:56;6.70;99.90
26703;DHT22;14316;51.074;3.704;2023-03-12T01:56:27;6.70;99.90
26703;DHT22;14316;51.074;3.704;2023-03-12T01:58:57;6.60;99.90
26703;DHT22;14316;51.074;3.704;2023-03-12T02:01:25;6.50;99.90
26703;DHT22;14316;51.074;3.704;2023-03-12T02:03:53;6.30;99.90
26703;DHT22;14316;51.074;3.704;2023-03-12T02:06:34;6.40;99.90
26703;DHT22;14316;51.074;3.704;2023-03-12T02:09:02;6.20;99.90
26703;DHT22;14316;51.074;3.704;2023-03-12T02:11:30;6.10;99.90
26703;DHT22;14316;51.074;3.704;2023-03-12T02:13:56;6.20;99.90
26703;DHT22;14316;51.074;3.704;2023-03-12T02:16:22;6.20;99.90
26703;DHT22;14316;51.074;3.704;2023-03-12T02:18:49;6.20;99.90
26703;DHT22;14316;51.074;3.704;2023-03-12T02:21:23;6.30;99.90
26703;DHT22;14316;51.074;3.704;2023-03-12T02:26:18;5.80;99.90
26703;DHT22;14316;51.074;3.704;2023-03-12T02:28:47;5.70;99.90
26703;DHT22;14316;51.074;3.704;2023-03-12T02:31:20;5.80;99.90
26703;DHT22;14316;51.074;3.704;2023-03-12T02:33:46;5.90;99.90
26703;DHT22;14316;51.074;3.704;2023-03-12T02:36:12;6.10;99.90
26703;DHT22;14316;51.074;3.704;2023-03-12T02:38:42;6.40;99.90
26703;DHT22;14316;51.074;3.704;2023-03-12T02:43:52;6.50;99.90
26703;DHT22;14316;51.074;3.704;2023-03-12T02:46:21;6.40;99.90
26703;DHT22;14316;51.074;3.704;2023-03-12T02:48:47;6.40;99.90
26703;DHT22;14316;51.074;3.704;2023-03-12T02:51:13;6.40;99.90
26703;DHT22;14316;51.074;3.704;2023-03-12T02:53:39;6.40;99.90
26703;DHT22;14316;51.074;3.704;2023-03-12T02:56:06;6.50;99.90
26703;DHT22;14316;51.074;3.704;2023-03-12T02:58:32;6.60;99.90
26703;DHT22;14316;51.074;3.704;2023-03-12T03:00:58;6.70;99.90
26703;DHT22;14316;51.074;3.704;2023-03-12T03:03:23;6.60;99.90
26703;DHT22;14316;51.074;3.704;2023-03-12T03:05:49;6.70;99.90
26703;DHT22;14316;51.074;3.704;2023-03-12T03:08:16;6.50;99.90
26703;DHT22;14316;51.074;3.704;2023-03-12T03:10:42;6.40;99.90
26703;DHT22;14316;51.074;3.704;2023-03-12T03:13:08;6.40;99.90
26703;DHT22;14316;51.074;3.704;2023-03-12T03:15:34;6.40;99.90
26703;DHT22;14316;51.074;3.704;2023-03-12T03:18:00;6.60;99.90
26703;DHT22;14316;51.074;3.704;2023-03-12T03:20:29;6.50;99.90
26703;DHT22;14316;51.074;3.704;2023-03-12T03:22:55;6.60;99.90
26703;DHT22;14316;51.074;3.704;2023-03-12T03:25:20;6.60;99.90
26703;DHT22;14316;51.074;3.704;2023-03-12T03:27:47;6.50;99.90
26703;DHT22;14316;51.074;3.704;2023-03-12T03:30:14;6.60;99.90
26703;DHT22;14316;51.074;3.704;2023-03-12T03:32:41;6.80;99.90
26703;DHT22;14316;51.074;3.704;2023-03-12T03:35:07;6.80;99.90
26703;DHT22;14316;51.074;3.704;2023-03-12T03:37:33;6.70;99.90
26703;DHT22;14316;51.074;3.704;2023-03-12T03:39:59;6.40;99.90
26703;DHT22;14316;51.074;3.704;2023-03-12T03:42:26;6.40;99.90
26703;DHT22;14316;51.074;3.704;2023-03-12T03:44:52;6.30;99.90
26703;DHT22;14316;51.074;3.704;2023-03-12T03:47:18;6.50;99.90
26703;DHT22;14316;51.074;3.704;2023-03-12T03:49:44;6.50;99.90
26703;DHT22;14316;51.074;3.704;2023-03-12T03:52:10;6.70;99.90
26703;DHT22;14316;51.074;3.704;2023-03-12T03:54:36;6.80;99.90
26703;DHT22;14316;51.074;3.704;2023-03-12T03:57:02;6.80;99.90
26703;DHT22;14316;51.074;3.704;2023-03-12T03:59:28;6.50;99.90
26703;DHT22;14316;51.074;3.704;2023-03-12T04:01:54;6.60;99.90
26703;DHT22;14316;51.074;3.704;2023-03-12T04:04:20;6.70;99.90
26703;DHT22;14316;51.074;3.704;2023-03-12T04:06:46;6.10;99.90
26703;DHT22;14316;51.074;3.704;2023-03-12T04:09:12;6.10;99.90
26703;DHT22;14316;51.074;3.704;2023-03-12T04:11:38;6.20;99.90
26703;DHT22;14316;51.074;3.704;2023-03-12T04:14:04;6.10;99.90
26703;DHT22;14316;51.074;3.704;2023-03-12T04:16:30;6.10;99.90
26703;DHT22;14316;51.074;3.704;2023-03-12T04:18:56;6.20;99.90
26703;DHT22;14316;51.074;3.704;2023-03-12T04:21:22;6.30;99.90
26703;DHT22;14316;51.074;3.704;2023-03-12T04:23:48;6.20;99.90
26703;DHT22;14316;51.074;3.704;2023-03-12T04:26:14;6.20;99.90
26703;DHT22;14316;51.074;3.704;2023-03-12T04:28:40;6.20;99.90
26703;DHT22;14316;51.074;3.704;2023-03-12T04:31:07;6.20;99.90
26703;DHT22;14316;51.074;3.704;2023-03-12T04:33:35;6.30;99.90
26703;DHT22;14316;51.074;3.704;2023-03-12T04:36:01;6.20;99.90
26703;DHT22;14316;51.074;3.704;2023-03-12T04:38:28;6.10;99.90
26703;DHT22;14316;51.074;3.704;2023-03-12T04:40:59;6.20;99.90
26703;DHT22;14316;51.074;3.704;2023-03-12T04:43:27;6.20;99.90
26703;DHT22;14316;51.074;3.704;2023-03-12T04:45:53;6.00;99.90
26703;DHT22;14316;51.074;3.704;2023-03-12T04:48:19;6.10;99.90
26703;DHT22;14316;51.074;3.704;2023-03-12T04:50:45;6.30;99.90
26703;DHT22;14316;51.074;3.704;2023-03-12T04:53:11;6.20;99.90
26703;DHT22;14316;51.074;3.704;2023-03-12T04:55:37;6.10;99.90
26703;DHT22;14316;51.074;3.704;2023-03-12T04:58:04;5.80;99.90
26703;DHT22;14316;51.074;3.704;2023-03-12T05:00:30;5.80;99.90
26703;DHT22;14316;51.074;3.704;2023-03-12T05:02:56;5.70;99.90
26703;DHT22;14316;51.074;3.704;2023-03-12T05:05:22;5.70;99.90
26703;DHT22;14316;51.074;3.704;2023-03-12T05:07:48;5.70;99.90
26703;DHT22;14316;51.074;3.704;2023-03-12T05:10:14;5.70;99.90
26703;DHT22;14316;51.074;3.704;2023-03-12T05:12:40;5.70;99.90
26703;DHT22;14316;51.074;3.704;2023-03-12T05:15:07;5.70;99.90
26703;DHT22;14316;51.074;3.704;2023-03-12T05:17:33;5.60;99.90
26703;DHT22;14316;51.074;3.704;2023-03-12T05:19:59;5.60;99.90
26703;DHT22;14316;51.074;3.704;2023-03-12T05:22:25;5.60;99.90
26703;DHT22;14316;51.074;3.704;2023-03-12T05:24:51;5.70;99.90
26703;DHT22;14316;51.074;3.704;2023-03-12T05:27:17;5.70;99.90
26703;DHT22;14316;51.074;3.704;2023-03-12T05:29:43;5.70;99.90
26703;DHT22;14316;51.074;3.704;2023-03-12T05:32:09;5.70;99.90
26703;DHT22;14316;51.074;3.704;2023-03-12T05:34:35;5.70;99.90
26703;DHT22;14316;51.074;3.704;2023-03-12T05:37:01;5.70;99.90
26703;DHT22;14316;51.074;3.704;2023-03-12T05:39:27;5.70;99.90
26703;DHT22;14316;51.074;3.704;2023-03-12T05:41:53;5.70;99.90
26703;DHT22;14316;51.074;3.704;2023-03-12T05:44:23;5.70;99.90
26703;DHT22;14316;51.074;3.704;2023-03-12T05:46:49;5.70;99.90
26703;DHT22;14316;51.074;3.704;2023-03-12T05:49:15;5.70;99.90
26703;DHT22;14316;51.074;3.704;2023-03-12T05:51:41;5.70;99.90
26703;DHT22;14316;51.074;3.704;2023-03-12T05:54:08;5.80;99.90
26703;DHT22;14316;51.074;3.704;2023-03-12T05:56:38;5.80;99.90
26703;DHT22;14316;51.074;3.704;2023-03-12T05:59:04;5.90;99.90
26703;DHT22;14316;51.074;3.704;2023-03-12T06:01:31;5.90;99.90
26703;DHT22;14316;51.074;3.704;2023-03-12T06:03:57;6.00;99.90
26703;DHT22;14316;51.074;3.704;2023-03-12T06:06:23;6.00;99.90
26703;DHT22;14316;51.074;3.704;2023-03-12T06:08:51;6.10;99.90
26703;DHT22;14316;51.074;3.704;2023-03-12T06:11:17;6.10;99.90
26703;DHT22;14316;51.074;3.704;2023-03-12T06:13:43;6.20;99.90
26703;DHT22;14316;51.074;3.704;2023-03-12T06:16:25;6.30;99.90
26703;DHT22;14316;51.074;3.704;2023-03-12T06:18:51;6.30;99.90
26703;DHT22;14316;51.074;3.704;2023-03-12T06:21:21;6.40;99.90
26703;DHT22;14316;51.074;3.704;2023-03-12T06:23:48;6.50;99.90
26703;DHT22;14316;51.074;3.704;2023-03-12T06:26:15;6.50;99.90
26703;DHT22;14316;51.074;3.704;2023-03-12T06:28:41;6.60;99.90
26703;DHT22;14316;51.074;3.704;2023-03-12T06:31:08;6.60;99.90
26703;DHT22;14316;51.074;3.704;2023-03-12T06:33:34;6.70;99.90
26703;DHT22;14316;51.074;3.704;2023-03-12T06:36:02;6.80;99.90
26703;DHT22;14316;51.074;3.704;2023-03-12T06:38:28;6.80;99.90
26703;DHT22;14316;51.074;3.704;2023-03-12T06:41:00;6.80;99.90
26703;DHT22;14316;51.074;3.704;2023-03-12T06:43:28;6.80;99.90
26703;DHT22;14316;51.074;3.704;2023-03-12T06:45:56;6.90;99.90
26703;DHT22;14316;51.074;3.704;2023-03-12T06:48:23;6.90;99.90
26703;DHT22;14316;51.074;3.704;2023-03-12T06:50:49;7.00;99.90
26703;DHT22;14316;51.074;3.704;2023-03-12T06:53:16;7.00;99.90
26703;DHT22;14316;51.074;3.704;2023-03-12T06:55:43;7.10;99.90
26703;DHT22;14316;51.074;3.704;2023-03-12T06:58:10;7.10;99.90
26703;DHT22;14316;51.074;3.704;2023-03-12T07:00:36;7.10;99.90
26703;DHT22;14316;51.074;3.704;2023-03-12T07:03:02;7.20;99.90
26703;DHT22;14316;51.074;3.704;2023-03-12T07:05:28;7.30;99.90
26703;DHT22;14316;51.074;3.704;2023-03-12T07:07:54;7.30;99.90
26703;DHT22;14316;51.074;3.704;2023-03-12T07:10:20;7.40;99.90
26703;DHT22;14316;51.074;3.704;2023-03-12T07:12:46;7.50;99.90
26703;DHT22;14316;51.074;3.704;2023-03-12T07:15:12;7.50;99.90
26703;DHT22;14316;51.074;3.704;2023-03-12T07:17:38;7.70;99.90
26703;DHT22;14316;51.074;3.704;2023-03-12T07:20:04;7.70;99.90
26703;DHT22;14316;51.074;3.704;2023-03-12T07:22:31;7.80;99.90
26703;DHT22;14316;51.074;3.704;2023-03-12T07:24:57;7.80;99.90
26703;DHT22;14316;51.074;3.704;2023-03-12T07:27:23;7.90;99.90
26703;DHT22;14316;51.074;3.704;2023-03-12T07:29:49;8.00;99.90
26703;DHT22;14316;51.074;3.704;2023-03-12T07:32:15;8.00;99.90
26703;DHT22;14316;51.074;3.704;2023-03-12T07:34:41;8.10;99.90
26703;DHT22;14316;51.074;3.704;2023-03-12T07:37:07;8.10;99.90
26703;DHT22;14316;51.074;3.704;2023-03-12T07:39:32;8.20;99.90
26703;DHT22;14316;51.074;3.704;2023-03-12T07:41:59;8.30;99.90
26703;DHT22;14316;51.074;3.704;2023-03-12T07:44:25;8.30;99.90
26703;DHT22;14316;51.074;3.704;2023-03-12T07:46:51;8.40;99.90
26703;DHT22;14316;51.074;3.704;2023-03-12T07:49:17;8.50;99.90
26703;DHT22;14316;51.074;3.704;2023-03-12T07:51:44;8.60;99.90
26703;DHT22;14316;51.074;3.704;2023-03-12T07:54:10;8.60;99.90
26703;DHT22;14316;51.074;3.704;2023-03-12T07:56:36;8.70;99.90
26703;DHT22;14316;51.074;3.704;2023-03-12T07:59:03;8.70;99.90
26703;DHT22;14316;51.074;3.704;2023-03-12T08:01:28;8.80;99.90
26703;DHT22;14316;51.074;3.704;2023-03-12T08:03:58;8.80;99.90
26703;DHT22;14316;51.074;3.704;2023-03-12T08:06:24;8.90;99.90
26703;DHT22;14316;51.074;3.704;2023-03-12T08:08:51;9.00;99.90
26703;DHT22;14316;51.074;3.704;2023-03-12T08:11:17;9.10;99.90
26703;DHT22;14316;51.074;3.704;2023-03-12T08:13:43;9.20;99.90
26703;DHT22;14316;51.074;3.704;2023-03-12T08:16:09;9.30;99.90
26703;DHT22;14316;51.074;3.704;2023-03-12T08:18:35;9.30;99.90
26703;DHT22;14316;51.074;3.704;2023-03-12T08:21:01;9.40;99.90
26703;DHT22;14316;51.074;3.704;2023-03-12T08:23:27;9.40;99.90
26703;DHT22;14316;51.074;3.704;2023-03-12T08:25:53;9.50;99.90
26703;DHT22;14316;51.074;3.704;2023-03-12T08:28:21;9.60;99.90
26703;DHT22;14316;51.074;3.704;2023-03-12T08:30:49;9.70;99.90
26703;DHT22;14316;51.074;3.704;2023-03-12T08:33:15;9.80;99.90
26703;DHT22;14316;51.074;3.704;2023-03-12T08:35:41;10.00;99.90
26703;DHT22;14316;51.074;3.704;2023-03-12T08:38:07;10.10;99.90
26703;DHT22;14316;51.074;3.704;2023-03-12T08:40:33;10.20;99.90
26703;DHT22;14316;51.074;3.704;2023-03-12T08:42:59;10.10;99.90
26703;DHT22;14316;51.074;3.704;2023-03-12T08:45:25;10.20;99.90
26703;DHT22;14316;51.074;3.704;2023-03-12T08:47:51;10.30;99.90
26703;DHT22;14316;51.074;3.704;2023-03-12T08:50:17;10.20;99.90
26703;DHT22;14316;51.074;3.704;2023-03-12T08:52:44;10.20;99.90
26703;DHT22;14316;51.074;3.704;2023-03-12T08:55:10;10.30;99.90
26703;DHT22;14316;51.074;3.704;2023-03-12T08:57:37;10.30;99.90
26703;DHT22;14316;51.074;3.704;2023-03-12T09:00:03;10.30;99.90
26703;DHT22;14316;51.074;3.704;2023-03-12T09:02:36;10.40;99.90
26703;DHT22;14316;51.074;3.704;2023-03-12T09:05:03;10.40;99.90
26703;DHT22;14316;51.074;3.704;2023-03-12T09:07:30;10.40;99.90
26703;DHT22;14316;51.074;3.704;2023-03-12T09:09:56;10.40;99.90
26703;DHT22;14316;51.074;3.704;2023-03-12T09:12:23;10.50;99.90
26703;DHT22;14316;51.074;3.704;2023-03-12T09:14:50;10.60;99.90
26703;DHT22;14316;51.074;3.704;2023-03-12T09:17:17;10.70;99.90
26703;DHT22;14316;51.074;3.704;2023-03-12T09:19:43;10.90;99.90
26703;DHT22;14316;51.074;3.704;2023-03-12T09:22:09;11.00;99.90
26703;DHT22;14316;51.074;3.704;2023-03-12T09:24:35;11.00;99.90
26703;DHT22;14316;51.074;3.704;2023-03-12T09:27:01;11.10;99.90
26703;DHT22;14316;51.074;3.704;2023-03-12T09:29:29;11.10;99.90
26703;DHT22;14316;51.074;3.704;2023-03-12T09:31:54;11.20;99.90
26703;DHT22;14316;51.074;3.704;2023-03-12T09:34:20;11.30;99.90
26703;DHT22;14316;51.074;3.704;2023-03-12T09:36:46;11.20;99.90
26703;DHT22;14316;51.074;3.704;2023-03-12T09:39:12;11.20;99.90
26703;DHT22;14316;51.074;3.704;2023-03-12T09:41:39;11.10;99.90
26703;DHT22;14316;51.074;3.704;2023-03-12T09:49:26;11.20;99.90
26703;DHT22;14316;51.074;3.704;2023-03-12T09:51:57;11.40;99.90
26703;DHT22;14316;51.074;3.704;2023-03-12T09:57:02;11.60;99.90
26703;DHT22;14316;51.074;3.704;2023-03-12T09:59:28;11.60;99.90
26703;DHT22;14316;51.074;3.704;2023-03-12T10:01:58;11.80;99.90
26703;DHT22;14316;51.074;3.704;2023-03-12T10:04:49;11.80;99.90
26703;DHT22;14316;51.074;3.704;2023-03-12T10:07:33;11.80;99.90
26703;DHT22;14316;51.074;3.704;2023-03-12T10:10:52;11.90;99.90
26703;DHT22;14316;51.074;3.704;2023-03-12T10:26:58;12.30;99.90
26703;DHT22;14316;51.074;3.704;2023-03-12T10:29:29;12.50;99.90
26703;DHT22;14316;51.074;3.704;2023-03-12T10:32:04;12.40;99.90
26703;DHT22;14316;51.074;3.704;2023-03-12T10:34:36;12.70;99.90
26703;DHT22;14316;51.074;3.704;2023-03-12T10:37:24;12.70;99.90
26703;DHT22;14316;51.074;3.704;2023-03-12T10:39:52;12.90;99.90
26703;DHT22;14316;51.074;3.704;2023-03-12T10:42:22;13.00;99.90
26703;DHT22;14316;51.074;3.704;2023-03-12T10:45:09;13.30;99.90
26703;DHT22;14316;51.074;3.704;2023-03-12T10:47:40;12.90;99.90
26703;DHT22;14316;51.074;3.704;2023-03-12T10:50:19;12.80;99.90
26703;DHT22;14316;51.074;3.704;2023-03-12T10:52:48;13.00;99.90
26703;DHT22;14316;51.074;3.704;2023-03-12T10:55:26;13.00;99.90
26703;DHT22;14316;51.074;3.704;2023-03-12T10:57:54;12.90;99.90
26703;DHT22;14316;51.074;3.704;2023-03-12T11:00:24;13.00;99.90
26703;DHT22;14316;51.074;3.704;2023-03-12T11:05:29;13.80;99.90
26703;DHT22;14316;51.074;3.704;2023-03-12T11:07:56;14.00;99.90
26703;DHT22;14316;51.074;3.704;2023-03-12T11:10:42;14.00;99.90
26703;DHT22;14316;51.074;3.704;2023-03-12T11:13:33;13.70;99.90
26703;DHT22;14316;51.074;3.704;2023-03-12T11:18:56;13.70;99.90
26703;DHT22;14316;51.074;3.704;2023-03-12T11:21:24;13.50;99.90
26703;DHT22;14316;51.074;3.704;2023-03-12T11:26:36;13.90;99.90
26703;DHT22;14316;51.074;3.704;2023-03-12T11:29:09;14.10;99.90
26703;DHT22;14316;51.074;3.704;2023-03-12T11:31:52;13.70;99.90
26703;DHT22;14316;51.074;3.704;2023-03-12T11:34:23;13.60;99.90
26703;DHT22;14316;51.074;3.704;2023-03-12T11:58:11;12.80;99.90
26703;DHT22;14316;51.074;3.704;2023-03-12T12:06:35;13.30;99.90
26703;DHT22;14316;51.074;3.704;2023-03-12T12:09:20;13.20;99.90
26703;DHT22;14316;51.074;3.704;2023-03-12T12:15:18;13.00;99.90
26703;DHT22;14316;51.074;3.704;2023-03-12T12:18:08;12.90;99.90
26703;DHT22;14316;51.074;3.704;2023-03-12T12:21:03;12.60;99.90
26703;DHT22;14316;51.074;3.704;2023-03-12T12:23:53;12.50;99.90
26703;DHT22;14316;51.074;3.704;2023-03-12T12:26:30;12.70;99.90
26703;DHT22;14316;51.074;3.704;2023-03-12T12:34:20;13.40;99.90
26703;DHT22;14316;51.074;3.704;2023-03-12T12:36:59;13.70;99.90
26703;DHT22;14316;51.074;3.704;2023-03-12T12:39:31;13.90;99.90
26703;DHT22;14316;51.074;3.704;2023-03-12T12:42:03;14.00;99.90
26703;DHT22;14316;51.074;3.704;2023-03-12T12:44:34;14.00;99.90
26703;DHT22;14316;51.074;3.704;2023-03-12T12:47:04;13.60;99.90
26703;DHT22;14316;51.074;3.704;2023-03-12T12:49:41;13.50;99.90
26703;DHT22;14316;51.074;3.704;2023-03-12T12:52:11;13.70;99.90
26703;DHT22;14316;51.074;3.704;2023-03-12T12:57:13;14.00;99.90
26703;DHT22;14316;51.074;3.704;2023-03-12T13:02:31;13.80;99.90
26703;DHT22;14316;51.074;3.704;2023-03-12T13:04:59;13.30;99.90
26703;DHT22;14316;51.074;3.704;2023-03-12T13:09:53;13.20;99.90
26703;DHT22;14316;51.074;3.704;2023-03-12T13:14:52;13.20;99.90
26703;DHT22;14316;51.074;3.704;2023-03-12T13:17:24;13.10;99.90
26703;DHT22;14316;51.074;3.704;2023-03-12T13:20:04;13.10;99.90
26703;DHT22;14316;51.074;3.704;2023-03-12T13:23:19;13.10;99.90
26703;DHT22;14316;51.074;3.704;2023-03-12T13:34:12;13.00;99.90
26703;DHT22;14316;51.074;3.704;2023-03-12T13:36:46;12.90;99.90
26703;DHT22;14316;51.074;3.704;2023-03-12T13:47:16;12.70;99.90
26703;DHT22;14316;51.074;3.704;2023-03-12T13:52:22;12.60;99.90
26703;DHT22;14316;51.074;3.704;2023-03-12T13:55:13;12.80;99.90
26703;DHT22;14316;51.074;3.704;2023-03-12T13:57:44;12.80;99.90
26703;DHT22;14316;51.074;3.704;2023-03-12T14:02:44;13.00;99.90
26703;DHT22;14316;51.074;3.704;2023-03-12T14:05:12;12.90;99.90
26703;DHT22;14316;51.074;3.704;2023-03-12T14:07:46;13.00;99.90
26703;DHT22;14316;51.074;3.704;2023-03-12T14:13:11;14.50;99.90
26703;DHT22;14316;51.074;3.704;2023-03-12T14:18:30;14.80;99.90
26703;DHT22;14316;51.074;3.704;2023-03-12T14:21:01;13.90;99.90
26703;DHT22;14316;51.074;3.704;2023-03-12T14:23:40;13.30;99.90
26703;DHT22;14316;51.074;3.704;2023-03-12T14:26:20;12.90;99.90
26703;DHT22;14316;51.074;3.704;2023-03-12T14:28:58;12.80;99.90
26703;DHT22;14316;51.074;3.704;2023-03-12T14:31:27;12.60;99.90
26703;DHT22;14316;51.074;3.704;2023-03-12T14:39:24;12.50;99.90
26703;DHT22;14316;51.074;3.704;2023-03-12T14:41:58;12.40;99.90
26703;DHT22;14316;51.074;3.704;2023-03-12T14:44:27;12.30;99.90
26703;DHT22;14316;51.074;3.704;2023-03-12T14:47:16;12.30;99.90
26703;DHT22;14316;51.074;3.704;2023-03-12T14:49:45;12.40;99.90
26703;DHT22;14316;51.074;3.704;2023-03-12T14:52:28;12.30;99.90
26703;DHT22;14316;51.074;3.704;2023-03-12T14:55:06;12.20;99.90
26703;DHT22;14316;51.074;3.704;2023-03-12T14:57:34;12.20;99.90
26703;DHT22;14316;51.074;3.704;2023-03-12T15:00:00;12.20;99.90
26703;DHT22;14316;51.074;3.704;2023-03-12T15:02:29;12.20;99.90
26703;DHT22;14316;51.074;3.704;2023-03-12T15:04:57;12.20;99.90
26703;DHT22;14316;51.074;3.704;2023-03-12T15:07:35;12.10;99.90
26703;DHT22;14316;51.074;3.704;2023-03-12T15:10:14;12.10;99.90
26703;DHT22;14316;51.074;3.704;2023-03-12T15:12:43;12.20;99.90
26703;DHT22;14316;51.074;3.704;2023-03-12T15:15:32;12.10;99.90
26703;DHT22;14316;51.074;3.704;2023-03-12T15:18:04;12.10;99.90
26703;DHT22;14316;51.074;3.704;2023-03-12T15:20:31;12.10;99.90
26703;DHT22;14316;51.074;3.704;2023-03-12T15:22:59;12.20;99.90
26703;DHT22;14316;51.074;3.704;2023-03-12T15:25:28;12.10;99.90
26703;DHT22;14316;51.074;3.704;2023-03-12T15:30:37;12.10;99.90
26703;DHT22;14316;51.074;3.704;2023-03-12T15:35:29;12.20;99.90
26703;DHT22;14316;51.074;3.704;2023-03-12T15:37:55;12.20;99.90
26703;DHT22;14316;51.074;3.704;2023-03-12T15:40:23;12.10;99.90
26703;DHT22;14316;51.074;3.704;2023-03-12T15:42:49;12.10;99.90
26703;DHT22;14316;51.074;3.704;2023-03-12T15:45:31;12.00;99.90
26703;DHT22;14316;51.074;3.704;2023-03-12T15:47:58;12.00;99.90
26703;DHT22;14316;51.074;3.704;2023-03-12T15:50:40;11.80;99.90
26703;DHT22;14316;51.074;3.704;2023-03-12T15:53:25;11.80;99.90
26703;DHT22;14316;51.074;3.704;2023-03-12T15:58:41;11.70;99.90
26703;DHT22;14316;51.074;3.704;2023-03-12T16:01:16;11.60;99.90
26703;DHT22;14316;51.074;3.704;2023-03-12T16:03:43;11.60;99.90
26703;DHT22;14316;51.074;3.704;2023-03-12T16:06:15;11.50;99.90
26703;DHT22;14316;51.074;3.704;2023-03-12T16:09:02;11.50;99.90
26703;DHT22;14316;51.074;3.704;2023-03-12T16:11:30;11.50;99.90
26703;DHT22;14316;51.074;3.704;2023-03-12T16:14:02;11.50;99.90
26703;DHT22;14316;51.074;3.704;2023-03-12T16:16:29;11.50;99.90
26703;DHT22;14316;51.074;3.704;2023-03-12T16:18:54;11.50;99.90
26703;DHT22;14316;51.074;3.704;2023-03-12T16:21:20;11.50;99.90
26703;DHT22;14316;51.074;3.704;2023-03-12T16:23:46;11.50;99.90
26703;DHT22;14316;51.074;3.704;2023-03-12T16:26:12;11.50;99.90
26703;DHT22;14316;51.074;3.704;2023-03-12T16:28:40;11.40;99.90
26703;DHT22;14316;51.074;3.704;2023-03-12T16:31:13;11.40;99.90
26703;DHT22;14316;51.074;3.704;2023-03-12T16:33:39;11.40;99.90
26703;DHT22;14316;51.074;3.704;2023-03-12T16:36:16;11.30;99.90
26703;DHT22;14316;51.074;3.704;2023-03-12T16:38:42;11.40;99.90
26703;DHT22;14316;51.074;3.704;2023-03-12T16:41:11;11.30;99.90
26703;DHT22;14316;51.074;3.704;2023-03-12T16:43:38;11.30;99.90
26703;DHT22;14316;51.074;3.704;2023-03-12T16:46:07;11.30;99.90
26703;DHT22;14316;51.074;3.704;2023-03-12T16:48:34;11.30;99.90
26703;DHT22;14316;51.074;3.704;2023-03-12T16:51:00;11.30;99.90
26703;DHT22;14316;51.074;3.704;2023-03-12T16:53:26;11.30;99.90
26703;DHT22;14316;51.074;3.704;2023-03-12T16:58:21;11.20;99.90
26703;DHT22;14316;51.074;3.704;2023-03-12T17:00:49;11.20;99.90
26703;DHT22;14316;51.074;3.704;2023-03-12T17:03:37;11.20;99.90
26703;DHT22;14316;51.074;3.704;2023-03-12T17:06:17;11.20;99.90
26703;DHT22;14316;51.074;3.704;2023-03-12T17:08:44;11.10;99.90
26703;DHT22;14316;51.074;3.704;2023-03-12T17:11:17;11.10;99.90
26703;DHT22;14316;51.074;3.704;2023-03-12T17:13:44;11.10;99.90
26703;DHT22;14316;51.074;3.704;2023-03-12T17:16:11;11.10;99.90
26703;DHT22;14316;51.074;3.704;2023-03-12T17:18:39;11.10;99.90
26703;DHT22;14316;51.074;3.704;2023-03-12T17:21:05;11.00;99.90
26703;DHT22;14316;51.074;3.704;2023-03-12T17:23:31;11.00;99.90
26703;DHT22;14316;51.074;3.704;2023-03-12T17:25:56;11.00;99.90
26703;DHT22;14316;51.074;3.704;2023-03-12T17:28:23;10.90;99.90
26703;DHT22;14316;51.074;3.704;2023-03-12T17:30:49;11.00;99.90
26703;DHT22;14316;51.074;3.704;2023-03-12T17:33:16;10.90;99.90
26703;DHT22;14316;51.074;3.704;2023-03-12T17:35:43;10.90;99.90
26703;DHT22;14316;51.074;3.704;2023-03-12T17:38:10;10.90;99.90
26703;DHT22;14316;51.074;3.704;2023-03-12T17:40:43;10.90;99.90
26703;DHT22;14316;51.074;3.704;2023-03-12T17:45:35;10.60;99.90
26703;DHT22;14316;51.074;3.704;2023-03-12T17:48:04;10.80;99.90
26703;DHT22;14316;51.074;3.704;2023-03-12T17:50:30;10.80;99.90
26703;DHT22;14316;51.074;3.704;2023-03-12T17:52:56;10.80;99.90
26703;DHT22;14316;51.074;3.704;2023-03-12T17:55:21;10.70;99.90
26703;DHT22;14316;51.074;3.704;2023-03-12T17:57:47;10.70;99.90
26703;DHT22;14316;51.074;3.704;2023-03-12T18:00:13;10.70;99.90